Time;durP1;ratioP1;P1;durP2;ratioP2;P2;SDS_P1;SDS_P2;PMS_P1;PMS_P2;Temp;Humidity;BMP_temperature;BMP_pressure;BME280_temperature;BME280_humidity;BME280_pressure;Samples;Min_cycle;Max_cycle;Signal;HPM_P1;HPM_P2
2022/09/01 00:01:41;;;;;;;8.57;5.35;;;;;;;20.36;76.86;99375.72;4987826;28;20569;-84
2022/09/01 00:04:08;;;;;;;8.15;4.65;;;;;;;20.62;75.72;99394.69;4989067;28;20034;-84
2022/09/01 00:06:35;;;;;;;11.57;5.07;;;;;;;20.49;75.23;99357.94;4988563;28;20050;-85
2022/09/01 00:09:04;;;;;;;12.52;7.32;;;;;;;20.74;75.09;99365.38;4988958;28;20041;-84
2022/09/01 00:11:31;;;;;;;9.48;6.18;;;;;;;20.63;74.78;99356.22;4989005;28;20045;-84
2022/09/01 00:14:00;;;;;;;11.52;6.07;;;;;;;20.92;74.83;99400.00;4988989;28;20042;-84
2022/09/01 00:16:27;;;;;;;12.63;8.45;;;;;;;20.14;76.32;99318.13;4988667;28;20129;-84
2022/09/01 00:18:53;;;;;;;14.25;8.45;;;;;;;20.65;76.26;99378.44;4988692;28;20046;-85
2022/09/01 00:21:26;;;;;;;14.77;7.75;;;;;;;20.42;75.84;99364.63;4988315;28;20508;-84
2022/09/01 00:23:52;;;;;;;11.82;7.18;;;;;;;20.18;77.93;99369.66;4988699;28;20030;-84
2022/09/01 00:26:18;;;;;;;13.38;6.45;;;;;;;20.52;76.98;99391.72;4970624;28;20052;-84
2022/09/01 00:28:44;;;;;;;9.95;6.55;;;;;;;20.44;76.64;99356.50;4988705;28;20042;-84
2022/09/01 00:31:10;;;;;;;14.07;8.00;;;;;;;20.61;76.24;99387.63;4988747;28;20042;-84
2022/09/01 00:33:36;;;;;;;13.20;7.60;;;;;;;20.63;75.77;99365.13;4986003;28;20117;-84
2022/09/01 00:36:02;;;;;;;10.68;6.88;;;;;;;21.12;74.65;99420.22;4987836;28;20026;-84
2022/09/01 00:38:27;;;;;;;14.80;7.20;;;;;;;20.88;74.38;99364.50;4986506;28;20031;-84
2022/09/01 00:40:53;;;;;;;9.98;6.82;;;;;;;20.97;74.16;99359.50;4986919;28;20040;-84
2022/09/01 00:43:39;;;;;;;10.57;6.53;;;;;;;20.88;74.01;99363.63;4987985;28;20097;-84
2022/09/01 00:46:09;;;;;;;11.15;6.05;;;;;;;20.52;75.12;99335.47;4988099;28;20089;-85
2022/09/01 00:48:36;;;;;;;8.65;5.93;;;;;;;20.47;74.78;99302.75;4969987;28;20034;-84
2022/09/01 00:51:03;;;;;;;10.90;6.32;;;;;;;20.60;74.95;99340.34;4988121;28;20493;-84
2022/09/01 00:53:29;;;;;;;16.05;6.65;;;;;;;20.63;75.14;99362.44;4986164;28;20420;-84
2022/09/01 00:55:55;;;;;;;11.05;7.38;;;;;;;20.63;74.20;99343.69;4987808;28;20030;-84
2022/09/01 00:58:21;;;;;;;13.73;7.53;;;;;;;20.65;74.20;99331.09;4988027;28;20489;-84
2022/09/01 01:00:50;;;;;;;12.27;6.93;;;;;;;20.83;74.03;99363.06;4988278;28;20042;-85
2022/09/01 01:03:16;;;;;;;20.42;7.53;;;;;;;20.81;73.79;99341.72;4986936;28;20030;-85
2022/09/01 01:05:52;;;;;;;14.50;7.07;;;;;;;20.74;73.22;99316.25;4967167;28;20489;-85
2022/09/01 01:08:26;;;;;;;10.32;6.03;;;;;;;20.83;73.97;99363.06;4966910;28;20744;-85
2022/09/01 01:10:51;;;;;;;11.40;6.22;;;;;;;20.79;73.36;99351.69;4968501;28;20490;-85
2022/09/01 01:13:19;;;;;;;15.30;6.47;;;;;;;20.63;74.02;99354.41;4968310;28;20093;-84
2022/09/01 01:15:45;;;;;;;11.25;6.20;;;;;;;20.60;74.27;99345.69;4968651;28;20046;-84
2022/09/01 01:18:14;;;;;;;10.13;7.15;;;;;;;20.74;73.67;99343.94;4983315;28;20492;-84
2022/09/01 01:23:43;;;;;;;12.30;8.00;;;;;;;20.68;73.73;99362.19;4968131;28;20538;-84
2022/09/01 01:26:09;;;;;;;11.75;6.55;;;;;;;20.55;74.23;99335.25;4968064;28;20034;-84
2022/09/01 01:28:37;;;;;;;10.98;6.97;;;;;;;20.60;73.93;99351.06;4968436;28;20034;-84
2022/09/01 01:31:13;;;;;;;10.10;7.05;;;;;;;20.61;74.46;99374.22;4968059;28;20077;-84
2022/09/01 01:33:46;;;;;;;9.63;6.05;;;;;;;21.05;74.29;99438.50;4966527;28;20065;-84
2022/09/01 01:36:25;;;;;;;12.82;6.47;;;;;;;20.50;74.82;99383.78;4968034;28;20069;-84
2022/09/01 01:38:54;;;;;;;12.43;7.22;;;;;;;20.28;75.49;99383.34;4968237;28;20118;-84
2022/09/01 01:41:20;;;;;;;14.73;9.38;;;;;;;20.29;76.67;99417.22;4968078;28;20485;-84
2022/09/01 01:43:50;;;;;;;10.05;7.43;;;;;;;19.91;77.87;99381.06;4967078;28;20192;-84
2022/09/01 01:46:17;;;;;;;16.55;9.02;;;;;;;19.86;77.97;99351.00;4967410;28;20042;-83
2022/09/01 01:48:43;;;;;;;13.65;8.32;;;;;;;20.04;77.82;99392.75;4968180;28;20778;-84
2022/09/01 01:51:10;;;;;;;14.32;9.50;;;;;;;19.92;77.87;99357.81;4967848;28;20038;-85
2022/09/01 01:53:38;;;;;;;16.90;9.43;;;;;;;19.85;77.13;99328.72;4968006;28;20034;-83
2022/09/01 01:56:05;;;;;;;20.65;8.50;;;;;;;20.28;77.12;99394.94;4968245;28;20042;-84
2022/09/01 01:58:32;;;;;;;15.13;9.23;;;;;;;19.95;78.01;99363.84;4968399;28;20058;-84
2022/09/01 02:00:58;;;;;;;18.25;10.85;;;;;;;20.09;77.19;99360.34;4968017;28;20035;-84
2022/09/01 02:03:27;;;;;;;12.93;8.07;;;;;;;20.10;76.39;99327.28;4968145;28;20062;-84
2022/09/01 02:05:54;;;;;;;17.88;9.48;;;;;;;20.30;75.96;99349.31;4966492;28;20047;-84
2022/09/01 02:08:24;;;;;;;18.42;9.68;;;;;;;20.31;76.00;99330.47;4967974;28;20097;-83
2022/09/01 02:10:53;;;;;;;15.23;8.60;;;;;;;20.45;75.51;99358.22;4982475;28;20474;-83
2022/09/01 02:13:29;;;;;;;13.90;8.60;;;;;;;20.70;75.32;99405.84;4967992;28;20039;-83
2022/09/01 02:15:58;;;;;;;14.38;8.77;;;;;;;20.40;75.30;99369.22;4966409;28;20150;-83
2022/09/01 02:18:37;;;;;;;14.80;8.57;;;;;;;20.06;76.25;99352.50;4967323;28;20059;-84
2022/09/01 02:21:09;;;;;;;10.85;8.32;;;;;;;20.07;76.03;99343.53;4966108;28;20042;-83
2022/09/01 02:23:39;;;;;;;13.50;8.75;;;;;;;20.22;76.32;99395.31;4967686;28;20031;-83
2022/09/01 02:26:07;;;;;;;13.25;8.93;;;;;;;20.08;76.39;99373.81;4967476;28;20046;-83
2022/09/01 02:28:35;;;;;;;13.88;9.82;;;;;;;19.99;76.72;99384.13;4967939;28;20042;-83
2022/09/01 02:31:03;;;;;;;25.90;9.10;;;;;;;20.10;75.79;99390.69;4967612;28;20037;-83
2022/09/01 02:33:31;;;;;;;13.02;7.68;;;;;;;20.01;76.38;99402.78;4967612;28;20031;-82
2022/09/01 02:35:59;;;;;;;14.73;9.18;;;;;;;19.61;76.95;99359.56;4967828;28;20061;-83
2022/09/01 02:38:27;;;;;;;18.02;10.48;;;;;;;19.32;77.96;99324.66;4965809;28;20039;-83
2022/09/01 02:40:57;;;;;;;13.55;9.10;;;;;;;19.56;77.59;99338.44;4967437;28;20034;-83
2022/09/01 02:43:26;;;;;;;10.55;6.93;;;;;;;19.48;76.82;99341.56;4967770;28;20039;-83
2022/09/01 02:45:56;;;;;;;12.93;7.63;;;;;;;19.94;77.06;99423.69;4967452;28;20058;-83
2022/09/01 02:48:35;;;;;;;15.90;8.52;;;;;;;19.67;76.68;99373.44;4982324;28;20062;-84
2022/09/01 02:51:05;;;;;;;16.42;8.00;;;;;;;19.67;76.69;99372.59;4965826;28;20121;-84
2022/09/01 02:53:33;;;;;;;10.27;7.28;;;;;;;19.59;75.87;99340.94;4982450;28;20514;-84
2022/09/01 02:55:59;;;;;;;11.85;7.40;;;;;;;19.53;76.63;99354.66;4968975;28;20031;-84
2022/09/01 02:58:26;;;;;;;9.63;7.00;;;;;;;19.68;77.43;99398.41;4970349;28;20485;-84
2022/09/01 03:00:54;;;;;;;15.07;8.38;;;;;;;19.42;76.92;99333.88;4970479;28;20042;-84
2022/09/01 03:03:20;;;;;;;14.57;8.70;;;;;;;19.02;77.65;99324.59;4969286;28;20042;-84
2022/09/01 03:05:47;;;;;;;12.32;7.30;;;;;;;19.30;78.03;99388.06;4976489;28;20633;-84
2022/09/01 03:08:15;;;;;;;14.90;8.68;;;;;;;19.05;78.77;99338.63;4989686;28;20104;-84
2022/09/01 03:10:43;;;;;;;11.50;7.05;;;;;;;19.05;79.13;99341.31;4990315;28;20033;-84
2022/09/01 03:13:12;;;;;;;12.98;8.02;;;;;;;19.30;79.56;99414.78;4972627;28;20112;-84
2022/09/01 03:15:38;;;;;;;14.02;7.57;;;;;;;19.02;80.56;99386.06;4989940;28;20030;-83
2022/09/01 03:18:09;;;;;;;9.57;7.03;;;;;;;18.82;81.02;99344.34;4988604;28;20045;-84
2022/09/01 03:20:36;;;;;;;36.25;10.32;;;;;;;18.95;80.69;99373.03;4989962;28;20044;-84
2022/09/01 03:23:06;;;;;;;22.45;9.13;;;;;;;18.78;82.16;99347.19;4989883;28;20038;-84
2022/09/01 03:25:34;;;;;;;25.33;8.48;;;;;;;18.78;81.61;99320.47;4989845;28;20046;-83
2022/09/01 03:28:01;;;;;;;29.88;9.77;;;;;;;18.88;82.29;99357.41;4971831;28;20484;-82
2022/09/01 03:30:32;;;;;;;28.48;9.13;;;;;;;18.72;84.18;99374.25;4989675;28;20501;-83
2022/09/01 03:32:59;;;;;;;24.52;10.23;;;;;;;18.56;84.94;99347.47;4989808;28;20039;-84
2022/09/01 03:35:27;;;;;;;18.00;9.68;;;;;;;18.23;87.90;99350.13;4989816;28;20044;-82
2022/09/01 03:37:57;;;;;;;14.82;9.85;;;;;;;18.26;86.70;99325.94;4989522;28;20041;-83
2022/09/01 03:40:26;;;;;;;19.05;8.20;;;;;;;19.42;84.13;99440.88;4971931;28;20042;-83
2022/09/01 03:43:12;;;;;;;20.90;9.90;;;;;;;19.07;81.70;99357.25;4987542;28;20052;-84
2022/09/01 03:45:39;;;;;;;13.75;8.68;;;;;;;19.03;83.35;99380.63;4988259;28;20165;-84
2022/09/01 03:48:07;;;;;;;16.98;8.32;;;;;;;19.08;82.42;99391.91;4989123;28;20521;-85
2022/09/01 03:50:36;;;;;;;17.38;9.68;;;;;;;19.26;81.66;99387.38;4986591;28;20057;-84
2022/09/01 03:53:02;;;;;;;15.32;9.90;;;;;;;18.64;83.52;99339.03;4989042;28;20509;-84
2022/09/01 03:55:32;;;;;;;15.82;9.80;;;;;;;18.66;83.95;99345.19;4989149;28;20035;-83
2022/09/01 03:58:02;;;;;;;14.52;8.98;;;;;;;18.76;84.78;99381.13;4989163;28;20042;-83
2022/09/01 04:00:28;;;;;;;21.10;9.02;;;;;;;18.96;83.50;99366.72;4989181;28;20046;-83
2022/09/01 04:02:57;;;;;;;15.00;9.75;;;;;;;18.76;83.56;99372.25;4988165;28;20177;-84
2022/09/01 04:05:27;;;;;;;16.67;9.50;;;;;;;18.82;82.91;99331.84;4971309;28;20482;-83
2022/09/01 04:08:02;;;;;;;13.80;8.35;;;;;;;18.70;83.15;99330.69;4971343;28;20044;-83
2022/09/01 04:10:31;;;;;;;15.57;9.23;;;;;;;19.16;82.98;99442.28;4971516;28;20053;-83
2022/09/01 04:12:58;;;;;;;17.90;8.85;;;;;;;18.77;83.79;99384.69;4971305;28;20057;-83
2022/09/01 04:15:26;;;;;;;16.35;7.88;;;;;;;19.04;83.87;99408.22;4988205;28;20513;-83
2022/09/01 04:18:18;;;;;;;14.15;9.65;;;;;;;19.19;82.60;99398.50;4989265;28;20035;-82
2022/09/01 04:20:49;;;;;;;12.45;7.68;;;;;;;19.42;82.12;99419.47;4987801;28;20041;-82
2022/09/01 04:23:35;;;;;;;15.38;8.02;;;;;;;19.66;81.91;99446.66;4988748;28;20081;-82
2022/09/01 04:26:13;;;;;;;12.77;9.13;;;;;;;19.81;81.06;99462.81;4988332;28;20034;-81
2022/09/01 04:28:44;;;;;;;12.63;8.63;;;;;;;20.00;79.50;99438.53;4988457;28;20120;-82
2022/09/01 04:31:18;;;;;;;16.42;8.32;;;;;;;19.92;78.71;99416.69;4988894;28;20030;-82
2022/09/01 04:33:45;;;;;;;18.27;8.75;;;;;;;20.01;79.03;99442.94;4989107;28;20026;-82
2022/09/01 04:36:21;;;;;;;17.02;10.18;;;;;;;19.80;77.72;99368.28;4970179;28;20543;-82
2022/09/01 04:38:54;;;;;;;;;;;;;;;20.26;77.79;99449.53;4988537;28;20067;-83
2022/09/01 04:41:25;;;;;;;12.60;8.27;;;;;;;20.26;77.15;99423.59;4988588;28;20380;-82
2022/09/01 04:43:56;;;;;;;12.73;8.07;;;;;;;20.35;76.75;99425.72;4988251;28;20049;-82
2022/09/01 04:46:24;;;;;;;15.02;7.63;;;;;;;20.20;76.63;99394.50;4970424;28;20040;-82
2022/09/01 04:48:54;;;;;;;13.90;8.45;;;;;;;20.47;76.16;99410.75;4985027;28;20445;-82
2022/09/01 04:51:21;;;;;;;13.93;7.65;;;;;;;20.59;75.97;99435.94;4979290;28;20440;-82
2022/09/01 04:53:49;;;;;;;14.00;8.73;;;;;;;20.58;76.29;99435.06;4968657;28;20038;-85
2022/09/01 04:56:18;;;;;;;14.65;7.85;;;;;;;20.85;76.70;99436.19;4975274;28;20026;-82
2022/09/01 04:58:45;;;;;;;12.50;7.93;;;;;;;21.11;76.03;99437.25;4987892;28;20032;-83
2022/09/01 05:01:20;;;;;;;12.63;8.40;;;;;;;21.10;74.71;99397.97;4988024;28;20034;-83
2022/09/01 05:03:56;;;;;;;13.43;7.78;;;;;;;21.55;74.40;99447.00;4987994;28;20109;-82
2022/09/01 05:06:22;;;;;;;10.48;6.53;;;;;;;21.46;73.96;99440.38;4987680;28;20043;-82
2022/09/01 05:08:48;;;;;;;8.32;5.72;;;;;;;21.54;74.31;99436.38;4988056;28;20038;-85
2022/09/01 05:11:16;;;;;;;12.20;7.70;;;;;;;21.62;73.81;99401.84;4970354;28;20026;-86
2022/09/01 05:13:49;;;;;;;13.23;6.43;;;;;;;21.68;72.98;99446.22;4987783;28;20508;-87
2022/09/01 05:16:20;;;;;;;19.20;8.90;;;;;;;21.78;72.74;99417.78;4987768;28;20026;-86
2022/09/01 05:18:48;;;;;;;12.65;8.43;;;;;;;21.96;71.99;99424.63;4985870;28;20111;-84
2022/09/01 05:21:20;;;;;;;19.13;6.88;;;;;;;21.68;70.10;99408.63;4987705;28;20490;-85
2022/09/01 05:23:50;;;;;;;9.48;5.53;;;;;;;21.51;70.19;99380.22;5001128;28;20065;-85
2022/09/01 05:26:27;;;;;;;9.88;5.90;;;;;;;21.87;69.11;99424.38;4986885;28;20041;-84
2022/09/01 05:28:57;;;;;;;18.10;6.10;;;;;;;21.86;69.32;99439.66;5002409;28;20504;-84
2022/09/01 05:31:26;;;;;;;14.75;5.95;;;;;;;21.33;70.15;99393.81;4986781;28;20038;-84
2022/09/01 05:33:54;;;;;;;15.65;6.28;;;;;;;21.53;69.39;99419.41;4987477;28;20030;-84
2022/09/01 05:36:22;;;;;;;13.23;6.47;;;;;;;21.89;68.58;99434.06;4987450;28;20452;-85
2022/09/01 05:38:49;;;;;;;17.20;6.45;;;;;;;21.53;69.45;99402.44;4986999;28;20413;-84
2022/09/01 05:41:16;;;;;;;15.40;5.72;;;;;;;21.74;69.26;99427.88;4986926;28;20068;-84
2022/09/01 05:43:47;;;;;;;13.43;6.70;;;;;;;21.84;68.89;99411.16;4985901;28;20393;-82
2022/09/01 05:46:19;;;;;;;8.60;5.85;;;;;;;21.94;67.51;99431.94;4987742;28;20057;-84
2022/09/01 05:48:48;;;;;;;12.15;6.93;;;;;;;22.32;67.70;99446.47;4986517;28;20115;-83
2022/09/01 05:51:20;;;;;;;10.07;6.43;;;;;;;22.53;66.31;99418.13;4985760;28;20030;-84
2022/09/01 05:53:50;;;;;;;11.07;5.65;;;;;;;22.52;65.10;99424.50;4985870;28;20050;-84
2022/09/01 05:56:16;;;;;;;7.05;4.63;;;;;;;22.44;65.06;99428.66;4987475;28;20038;-84
2022/09/01 05:58:46;;;;;;;8.68;5.45;;;;;;;22.61;66.22;99417.59;4970624;28;20413;-84
2022/09/01 06:01:21;;;;;;;8.52;5.38;;;;;;;23.05;64.95;99423.53;4987703;28;20041;-84
2022/09/01 06:03:55;;;;;;;8.20;5.40;;;;;;;23.38;63.48;99405.94;4988026;28;20575;-84
2022/09/01 06:06:29;;;;;;;9.00;5.65;;;;;;;23.53;63.40;99418.28;4987784;28;20532;-84
2022/09/01 06:08:57;;;;;;;12.38;5.57;;;;;;;23.62;61.64;99440.09;4987200;28;20034;-84
2022/09/01 06:11:25;;;;;;;7.05;4.53;;;;;;;23.61;62.52;99423.09;4969881;28;20031;-83
2022/09/01 06:13:55;;;;;;;6.85;4.95;;;;;;;23.72;60.46;99396.25;4987686;28;20027;-83
2022/09/01 06:16:23;;;;;;;11.20;5.25;;;;;;;23.97;61.82;99455.53;4987660;28;20069;-84
2022/09/01 06:18:52;;;;;;;6.65;4.15;;;;;;;23.87;59.87;99407.75;4987337;28;20173;-83
2022/09/01 06:21:18;;;;;;;8.80;4.57;;;;;;;24.00;59.58;99449.91;4987090;28;20092;-83
2022/09/01 06:23:44;;;;;;;12.20;6.95;;;;;;;23.64;60.53;99397.81;4986645;28;20064;-83
2022/09/01 06:26:27;;;;;;;11.57;5.40;;;;;;;24.02;60.30;99454.22;4987657;28;20165;-84
2022/09/01 06:28:58;;;;;;;7.05;4.38;;;;;;;24.48;60.29;99426.47;4987122;28;20050;-84
2022/09/01 06:31:26;;;;;;;8.93;5.68;;;;;;;24.59;58.49;99449.94;4971722;28;20076;-84
2022/09/01 06:33:54;;;;;;;8.95;4.75;;;;;;;24.91;58.15;99426.81;4991045;28;20049;-84
2022/09/01 06:36:24;;;;;;;10.57;5.68;;;;;;;25.33;56.22;99448.69;4990572;28;20058;-84
2022/09/01 06:38:51;;;;;;;8.63;5.63;;;;;;;25.12;56.04;99418.88;5005832;28;20041;-84
2022/09/01 06:41:18;;;;;;;10.23;4.72;;;;;;;24.92;57.52;99431.25;4990440;28;20030;-84
2022/09/01 06:43:51;;;;;;;10.18;6.00;;;;;;;24.91;56.29;99418.72;4990754;28;20034;-84
2022/09/01 06:46:18;;;;;;;12.88;5.72;;;;;;;25.04;56.02;99411.38;4990512;28;20109;-85
2022/09/01 06:48:45;;;;;;;9.95;5.50;;;;;;;25.41;55.66;99405.75;4972645;28;20579;-89
2022/09/01 06:51:16;;;;;;;9.63;5.38;;;;;;;26.15;53.24;99424.00;4989578;28;20076;-89
2022/09/01 06:53:43;;;;;;;8.57;5.00;;;;;;;25.64;53.06;99363.38;4990156;28;20046;-90
2022/09/01 06:56:12;;;;;;;11.80;5.25;;;;;;;26.33;52.36;99399.94;4989539;28;20034;-84
2022/09/01 06:58:40;;;;;;;7.57;4.32;;;;;;;26.88;50.42;99402.44;4990444;28;20118;-83
2022/09/01 07:01:16;;;;;;;8.40;4.97;;;;;;;26.91;49.52;99410.28;4990081;28;20041;-85
2022/09/01 07:03:44;;;;;;;8.98;4.65;;;;;;;26.95;48.88;99409.00;4990485;28;20026;-85
2022/09/01 07:06:10;;;;;;;5.82;4.15;;;;;;;27.37;47.93;99377.44;4990583;28;20501;-85
2022/09/01 07:08:38;;;;;;;7.82;4.10;;;;;;;27.56;47.07;99353.13;4990368;28;20041;-85
2022/09/01 07:11:16;;;;;;;6.80;3.17;;;;;;;27.77;47.97;99384.63;4990246;28;20793;-85
2022/09/01 07:13:44;;;;;;;5.55;3.67;;;;;;;27.69;46.12;99366.38;4989297;28;20030;-87
2022/09/01 07:16:20;;;;;;;6.72;3.97;;;;;;;27.57;46.46;99367.50;4990340;28;20042;-86
2022/09/01 07:18:45;;;;;;;5.15;3.33;;;;;;;27.38;46.10;99363.75;4990002;28;20116;-85
2022/09/01 07:21:11;;;;;;;5.50;3.55;;;;;;;27.65;45.91;99354.97;4990338;28;20096;-83
2022/09/01 07:23:38;;;;;;;6.43;3.67;;;;;;;27.61;47.78;99386.03;4989677;28;20034;-84
2022/09/01 07:26:05;;;;;;;8.05;4.47;;;;;;;28.58;47.45;99389.78;4989508;28;20041;-86
2022/09/01 07:28:32;;;;;;;7.43;4.97;;;;;;;28.43;45.77;99393.94;4989910;28;20505;-84
2022/09/01 07:30:57;;;;;;;5.88;3.75;;;;;;;28.78;44.91;99330.03;4990062;28;20033;-84
2022/09/01 07:33:23;;;;;;;5.25;3.88;;;;;;;29.53;45.76;99385.13;4989997;28;20026;-84
2022/09/01 07:35:54;;;;;;;6.03;3.75;;;;;;;29.48;42.51;99332.28;4989892;28;20493;-84
2022/09/01 07:38:21;;;;;;;6.57;3.60;;;;;;;30.12;42.30;99379.28;4989361;28;20037;-84
2022/09/01 07:40:47;;;;;;;5.45;3.80;;;;;;;29.85;41.14;99394.69;4990242;28;20030;-86
2022/09/01 07:43:21;;;;;;;8.93;3.92;;;;;;;29.48;43.58;99321.41;4988935;28;20120;-85
2022/09/01 07:45:48;;;;;;;5.43;3.65;;;;;;;28.67;43.29;99315.66;4989328;28;20084;-84
2022/09/01 07:48:19;;;;;;;9.20;4.82;;;;;;;28.90;43.78;99365.00;4989627;28;20050;-84
2022/09/01 07:50:47;;;;;;;5.55;4.20;;;;;;;29.11;45.56;99353.03;4989352;28;20052;-84
2022/09/01 07:53:17;;;;;;;6.57;4.55;;;;;;;29.39;42.75;99324.03;4989394;28;20497;-85
2022/09/01 07:55:45;;;;;;;5.95;3.67;;;;;;;29.76;41.96;99349.38;4971341;28;20436;-85
2022/09/01 07:58:12;;;;;;;7.07;4.28;;;;;;;29.34;43.60;99352.69;4988085;28;20185;-85
2022/09/01 08:00:39;;;;;;;7.20;4.03;;;;;;;29.89;39.64;99328.13;4989055;28;20063;-84
2022/09/01 08:03:05;;;;;;;6.75;3.67;;;;;;;30.11;39.15;99350.41;4989249;28;20120;-85
2022/09/01 08:05:31;;;;;;;6.80;3.63;;;;;;;30.04;38.99;99333.00;4989593;28;20209;-84
2022/09/01 08:07:57;;;;;;;6.22;4.35;;;;;;;30.35;39.24;99371.50;4989306;28;20153;-85
2022/09/01 08:10:23;;;;;;;7.00;3.22;;;;;;;30.09;39.76;99345.13;4971569;28;20649;-85
2022/09/01 08:12:48;;;;;;;5.53;3.95;;;;;;;30.37;39.89;99347.72;4989194;28;20034;-85
2022/09/01 08:15:16;;;;;;;5.55;4.38;;;;;;;30.80;39.22;99346.00;4989126;28;20036;-84
2022/09/01 08:17:42;;;;;;;9.18;4.50;;;;;;;31.21;38.02;99313.50;4988927;28;20041;-84
2022/09/01 08:20:08;;;;;;;7.38;4.53;;;;;;;30.91;38.24;99353.03;4988832;28;20034;-84
2022/09/01 08:22:36;;;;;;;6.80;4.07;;;;;;;30.50;38.20;99306.50;4989119;28;20034;-84
2022/09/01 08:25:07;;;;;;;6.72;4.45;;;;;;;30.90;38.21;99337.69;4988762;28;20652;-84
2022/09/01 08:27:35;;;;;;;5.93;4.03;;;;;;;30.78;38.14;99325.38;4988979;28;20033;-85
2022/09/01 08:30:06;;;;;;;6.20;4.03;;;;;;;31.18;37.71;99340.22;4988736;28;20022;-84
2022/09/01 08:32:33;;;;;;;6.65;4.25;;;;;;;31.40;37.63;99319.69;4988574;28;20030;-87
2022/09/01 08:35:00;;;;;;;7.43;4.20;;;;;;;31.06;37.21;99287.91;4988730;28;20578;-84
2022/09/01 08:37:25;;;;;;;9.18;4.25;;;;;;;30.93;36.88;99336.53;4988645;28;20433;-86
2022/09/01 08:39:51;;;;;;;7.82;4.22;;;;;;;31.04;37.96;99309.84;4988773;28;20037;-85
2022/09/01 08:42:55;;;;;;;7.68;5.55;;;;;;;31.36;37.92;99361.91;4988442;28;20042;-85
2022/09/01 08:45:32;;;;;;;7.22;4.28;;;;;;;31.27;38.25;99336.50;4988179;28;20030;-85
2022/09/01 08:48:05;;;;;;;6.47;3.97;;;;;;;31.19;37.60;99295.63;4987054;28;20042;-84
2022/09/01 08:50:34;;;;;;;6.80;3.75;;;;;;;30.91;37.23;99265.91;4988058;28;20144;-84
2022/09/01 08:53:22;;;;;;;6.70;3.60;;;;;;;31.24;38.19;99317.78;4988047;28;20505;-85
2022/09/01 08:55:53;;;;;;;6.97;3.53;;;;;;;30.97;37.22;99269.81;4988602;28;20536;-85
2022/09/01 08:58:19;;;;;;;6.75;3.47;;;;;;;31.08;36.54;99255.94;4988361;28;20420;-84
2022/09/01 09:00:51;;;;;;;5.80;3.47;;;;;;;31.14;37.58;99317.03;4988338;28;20034;-84
2022/09/01 09:03:30;;;;;;;5.88;2.90;;;;;;;31.45;36.86;99306.44;4988223;28;20504;-84
2022/09/01 09:06:02;;;;;;;4.30;2.78;;;;;;;31.43;36.99;99322.06;4986861;28;20532;-86
2022/09/01 09:08:50;;;;;;;5.30;2.92;;;;;;;31.02;37.58;99319.22;4981711;28;20543;-85
2022/09/01 09:11:21;;;;;;;4.75;2.92;;;;;;;30.91;40.16;99317.63;4987037;28;20038;-83
2022/09/01 09:13:58;;;;;;;3.35;2.53;;;;;;;30.77;38.60;99320.94;4987811;28;20492;-85
2022/09/01 09:16:42;;;;;;;3.75;2.50;;;;;;;30.78;38.43;99288.09;4980511;28;20037;-85
2022/09/01 09:19:09;;;;;;;6.97;2.78;;;;;;;31.05;38.21;99311.56;4977739;28;20066;-83
2022/09/01 09:21:36;;;;;;;4.18;2.80;;;;;;;31.11;38.54;99261.06;4973550;28;20035;-84
2022/09/01 09:24:46;;;;;;;4.47;2.38;;;;;;;31.10;37.44;99302.91;4970682;28;20026;-82
2022/09/01 09:27:48;;;;;;;4.68;2.40;;;;;;;30.84;38.50;99303.78;4968776;28;20466;-83
2022/09/01 09:30:21;;;;;;;8.90;3.78;;;;;;;30.23;37.92;99234.03;4927150;29;20422;-82
2022/09/01 09:33:04;;;;;;;4.45;2.95;;;;;;;31.12;37.85;99300.03;4959007;28;20046;-86
2022/09/01 09:35:40;;;;;;;4.35;2.75;;;;;;;30.68;38.29;99227.53;4968721;28;20046;-84
2022/09/01 09:38:18;;;;;;;23.92;3.55;;;;;;;30.92;38.14;99302.13;4965604;28;20193;-83
2022/09/01 09:41:14;;;;;;;7.78;2.25;;;;;;;31.01;38.28;99295.72;4972980;28;20049;-84
2022/09/01 09:43:47;;;;;;;4.95;2.50;;;;;;;31.26;37.74;99290.38;4987585;28;20497;-83
2022/09/01 09:46:30;;;;;;;7.40;2.83;;;;;;;31.14;39.29;99300.69;4985096;28;20033;-84
2022/09/01 09:49:28;;;;;;;4.63;2.42;;;;;;;30.93;37.42;99263.84;4987514;28;20101;-83
2022/09/01 09:52:13;;;;;;;5.03;3.10;;;;;;;30.67;38.27;99220.38;4987416;28;20034;-83
2022/09/01 09:54:58;;;;;;;7.13;3.22;;;;;;;30.74;37.72;99199.66;4988130;28;20113;-83
2022/09/01 09:57:24;;;;;;;6.90;2.60;;;;;;;30.34;38.80;99218.31;4969424;28;20425;-83
2022/09/01 09:59:52;;;;;;;7.78;3.35;;;;;;;31.02;38.42;99281.09;4987211;28;20034;-83
2022/09/01 10:02:50;;;;;;;4.10;2.58;;;;;;;30.74;38.04;99213.25;4986430;28;20073;-84
2022/09/01 10:05:40;;;;;;;5.43;2.75;;;;;;;31.44;39.06;99252.94;4963879;28;20041;-83
2022/09/01 10:08:09;;;;;;;4.35;2.95;;;;;;;31.26;37.95;99235.88;4973082;28;20038;-82
2022/09/01 10:10:47;;;;;;;6.20;3.38;;;;;;;31.11;37.82;99203.00;4990343;28;20042;-84
2022/09/01 10:13:16;;;;;;;8.60;3.55;;;;;;;31.17;37.04;99232.28;4990883;28;20489;-84
2022/09/01 10:16:08;;;;;;;4.63;2.55;;;;;;;30.95;38.14;99214.69;5005600;28;20041;-86
2022/09/01 10:18:38;;;;;;;7.28;2.78;;;;;;;31.11;37.56;99232.94;4982705;28;20085;-84
2022/09/01 10:21:37;;;;;;;6.47;2.88;;;;;;;31.61;39.39;99250.28;4973146;28;20043;-84
2022/09/01 10:24:15;;;;;;;7.07;3.03;;;;;;;31.56;36.88;99171.75;4990693;28;20031;-86
2022/09/01 10:26:45;;;;;;;4.13;2.65;;;;;;;31.45;36.69;99196.56;4991292;28;20476;-84
2022/09/01 10:29:37;;;;;;;5.63;3.25;;;;;;;31.24;37.06;99245.06;4990620;28;20030;-84
2022/09/01 10:32:09;;;;;;;4.78;2.72;;;;;;;31.14;37.65;99230.75;4963193;28;20042;-83
2022/09/01 10:34:36;;;;;;;5.20;3.03;;;;;;;30.89;36.77;99176.22;4991215;28;20030;-83
2022/09/01 10:37:05;;;;;;;8.07;2.90;;;;;;;30.94;37.20;99196.63;4973302;28;20042;-85
2022/09/01 10:39:30;;;;;;;4.95;2.95;;;;;;;30.91;36.85;99197.81;4990273;28;20429;-86
2022/09/01 10:42:05;;;;;;;4.30;2.67;;;;;;;30.87;36.90;99172.78;4990860;28;20040;-84
2022/09/01 10:44:37;;;;;;;5.07;2.30;;;;;;;31.00;37.49;99157.88;4990886;28;20037;-84
2022/09/01 10:47:21;;;;;;;4.47;2.92;;;;;;;31.49;35.85;99220.56;4991036;28;20037;-85
2022/09/01 10:49:47;;;;;;;5.40;2.50;;;;;;;31.71;35.37;99219.06;4990339;28;20113;-85
2022/09/01 10:52:41;;;;;;;6.00;3.10;;;;;;;31.63;35.27;99201.88;4990173;28;20172;-86
2022/09/01 10:55:32;;;;;;;8.05;3.30;;;;;;;31.47;35.42;99203.56;4990338;28;20038;-85
2022/09/01 10:57:58;;;;;;;6.57;2.10;;;;;;;31.43;35.69;99221.25;4990784;28;20564;-85
2022/09/01 11:00:24;;;;;;;6.50;3.17;;;;;;;31.64;35.56;99245.31;4990334;28;20141;-85
2022/09/01 11:03:12;;;;;;;6.60;2.63;;;;;;;31.56;35.26;99221.63;4990498;28;20026;-85
2022/09/01 11:05:52;;;;;;;6.30;2.42;;;;;;;31.57;35.15;99214.31;4986431;28;20129;-85
2022/09/01 11:08:22;;;;;;;8.20;3.13;;;;;;;31.10;35.58;99127.78;4982734;28;20022;-85
2022/09/01 11:11:30;;;;;;;4.97;3.53;;;;;;;31.28;35.60;99180.22;4973805;28;20504;-87
2022/09/01 11:14:04;;;;;;;8.00;2.85;;;;;;;31.22;36.04;99167.28;4975320;28;20053;-85
2022/09/01 11:16:42;;;;;;;6.40;3.00;;;;;;;31.66;35.25;99209.72;4988423;28;20564;-85
2022/09/01 11:19:34;;;;;;;6.78;3.40;;;;;;;31.62;34.42;99181.09;4969249;28;20022;-84
2022/09/01 11:22:18;;;;;;;7.50;3.72;;;;;;;31.44;34.66;99179.38;4987580;28;20026;-84
2022/09/01 11:25:05;;;;;;;3.50;2.42;;;;;;;31.26;34.78;99125.03;4989242;28;20037;-86
2022/09/01 11:27:49;;;;;;;4.05;2.15;;;;;;;32.02;33.76;99203.88;4976550;28;20039;-84
2022/09/01 11:30:23;;;;;;;3.20;2.08;;;;;;;31.57;36.26;99157.94;4975446;28;20047;-86
2022/09/01 11:33:14;;;;;;;7.10;2.70;;;;;;;31.58;34.81;99167.81;4979410;28;20062;-83
2022/09/01 11:35:43;;;;;;;4.05;2.92;;;;;;;31.52;34.71;99149.38;4969137;28;20047;-84
2022/09/01 11:38:12;;;;;;;8.05;3.60;;;;;;;31.48;34.37;99103.56;4970022;28;20109;-84
2022/09/01 11:40:38;;;;;;;6.35;3.00;;;;;;;31.57;34.31;99148.91;4969836;28;20070;-83
2022/09/01 11:43:09;;;;;;;8.05;2.58;;;;;;;31.55;33.90;99118.25;4970533;28;20065;-83
2022/09/01 11:45:58;;;;;;;4.68;2.40;;;;;;;31.98;34.05;99161.59;4975379;28;20062;-85
2022/09/01 11:48:25;;;;;;;5.57;3.55;;;;;;;31.53;34.67;99117.56;4981989;28;20050;-85
2022/09/01 11:51:00;;;;;;;4.45;2.78;;;;;;;32.11;34.08;99189.22;4989382;28;20038;-86
2022/09/01 11:53:26;;;;;;;;;;;;;;;32.07;33.79;99174.19;4988929;28;20038;-81